Time;durP1;ratioP1;P1;durP2;ratioP2;P2;SDS_P1;SDS_P2;PMS_P1;PMS_P2;Temp;Humidity;BMP_temperature;BMP_pressure;BME280_temperature;BME280_humidity;BME280_pressure;Samples;Min_cycle;Max_cycle;Signal;HPM_P1;HPM_P2
2021/09/15 00:01:49;;;;;;;17.60;15.70;;;20.00;99.90;;;;;;5113084;28;20445;-67
2021/09/15 00:04:15;;;;;;;16.27;14.67;;;20.00;99.90;;;;;;5113204;28;20933;-66
2021/09/15 00:06:42;;;;;;;16.33;14.43;;;19.90;99.90;;;;;;5113229;28;20449;-67
2021/09/15 00:09:09;;;;;;;16.10;13.80;;;20.00;99.90;;;;;;5112728;28;20441;-66
2021/09/15 00:11:37;;;;;;;15.07;13.77;;;20.00;99.90;;;;;;5112749;28;20473;-66
2021/09/15 00:14:05;;;;;;;15.83;14.43;;;19.90;99.90;;;;;;5113235;28;20444;-67
2021/09/15 00:16:32;;;;;;;16.23;14.73;;;19.90;99.90;;;;;;5112836;28;20467;-68
2021/09/15 00:18:58;;;;;;;14.73;13.23;;;19.80;99.90;;;;;;5112758;28;20437;-67
2021/09/15 00:21:26;;;;;;;15.37;13.83;;;19.90;99.90;;;;;;5112964;28;20437;-68
2021/09/15 00:23:53;;;;;;;15.87;14.37;;;19.90;99.90;;;;;;5112927;28;20469;-66
2021/09/15 00:26:20;;;;;;;14.23;12.87;;;20.00;99.90;;;;;;5113021;28;20459;-66
2021/09/15 00:28:48;;;;;;;15.10;13.80;;;20.00;99.90;;;;;;5112760;28;20484;-67
2021/09/15 00:31:15;;;;;;;14.87;12.57;;;20.00;99.90;;;;;;5112895;28;20437;-68
2021/09/15 00:33:42;;;;;;;18.30;13.70;;;20.00;99.90;;;;;;5112635;28;20444;-68
2021/09/15 00:36:09;;;;;;;16.30;14.80;;;19.90;99.90;;;;;;5112842;28;20457;-67
2021/09/15 00:38:35;;;;;;;16.33;14.83;;;19.80;99.90;;;;;;5112988;28;20438;-68
2021/09/15 00:41:02;;;;;;;17.03;15.43;;;19.80;99.90;;;;;;5112528;28;21009;-66
2021/09/15 00:43:29;;;;;;;16.83;15.30;;;19.70;99.90;;;;;;5112490;28;20437;-68
2021/09/15 00:45:58;;;;;;;19.30;17.43;;;19.70;99.90;;;;;;5112486;27;20459;-68
2021/09/15 00:48:26;;;;;;;17.50;15.77;;;19.70;99.90;;;;;;5112461;28;20477;-66
2021/09/15 00:50:53;;;;;;;18.13;16.53;;;19.60;99.90;;;;;;5112689;28;20444;-67
2021/09/15 00:53:20;;;;;;;18.00;16.20;;;19.70;99.90;;;;;;5112362;28;20532;-66
2021/09/15 00:55:47;;;;;;;17.43;15.83;;;19.60;99.90;;;;;;5112477;28;20461;-66
2021/09/15 00:58:14;;;;;;;17.97;16.17;;;19.60;99.90;;;;;;5112443;28;20815;-66
2021/09/15 01:00:40;;;;;;;18.77;16.77;;;19.60;99.90;;;;;;5112163;28;20437;-66
2021/09/15 01:03:09;;;;;;;18.73;17.03;;;19.50;99.90;;;;;;5112425;28;20441;-67
2021/09/15 01:05:35;;;;;;;19.60;16.83;;;19.50;99.90;;;;;;5112184;28;20460;-66
2021/09/15 01:08:03;;;;;;;20.80;18.83;;;19.50;99.90;;;;;;5112462;28;20489;-67
2021/09/15 01:10:30;;;;;;;19.10;17.30;;;19.50;99.90;;;;;;5112698;28;20433;-66
2021/09/15 01:12:57;;;;;;;20.57;18.50;;;19.60;99.90;;;;;;5112118;28;20441;-66
2021/09/15 01:15:24;;;;;;;21.97;19.80;;;19.50;99.90;;;;;;5112320;28;20807;-66
2021/09/15 01:17:51;;;;;;;20.77;18.57;;;19.50;99.90;;;;;;5112367;28;20519;-66
2021/09/15 01:20:19;;;;;;;20.13;18.20;;;19.50;99.90;;;;;;5112135;28;20465;-67
2021/09/15 01:22:47;;;;;;;19.97;17.87;;;19.40;99.90;;;;;;5111042;28;20443;-67
2021/09/15 01:25:14;;;;;;;20.13;18.23;;;19.40;99.90;;;;;;5111740;28;21021;-67
2021/09/15 01:27:41;;;;;;;20.03;18.10;;;19.50;99.90;;;;;;5111428;28;20477;-66
2021/09/15 01:30:08;;;;;;;20.83;18.97;;;19.50;99.90;;;;;;5112019;28;20463;-67
2021/09/15 01:32:35;;;;;;;19.43;17.73;;;19.50;99.90;;;;;;5111213;28;20441;-67
2021/09/15 01:35:02;;;;;;;22.43;20.33;;;19.40;99.90;;;;;;5111803;28;20469;-66
2021/09/15 01:37:29;;;;;;;21.63;19.33;;;19.40;99.90;;;;;;5111643;28;20433;-67
2021/09/15 01:39:57;;;;;;;20.47;18.53;;;19.40;99.90;;;;;;5119468;27;20440;-67
2021/09/15 01:42:24;;;;;;;20.33;18.23;;;19.40;99.90;;;;;;5148725;27;20911;-67
2021/09/15 01:44:51;;;;;;;19.67;17.80;;;19.40;99.90;;;;;;5138115;27;20455;-67
2021/09/15 01:47:19;;;;;;;18.57;16.87;;;19.30;99.90;;;;;;5142768;27;20531;-67
2021/09/15 01:49:46;;;;;;;17.40;15.60;;;19.40;99.90;;;;;;5146241;27;20463;-67
2021/09/15 01:52:15;;;;;;;20.33;18.53;;;19.40;99.90;;;;;;5152175;27;20522;-67
2021/09/15 01:54:42;;;;;;;19.90;17.80;;;19.30;99.90;;;;;;5152462;27;20463;-67
2021/09/15 01:57:10;;;;;;;18.77;17.07;;;19.30;99.90;;;;;;5152754;27;20435;-66
2021/09/15 01:59:37;;;;;;;19.57;17.70;;;19.40;99.90;;;;;;5152435;27;20441;-67
2021/09/15 02:02:04;;;;;;;20.43;18.50;;;19.40;99.90;;;;;;5152285;27;20437;-67
2021/09/15 02:04:31;;;;;;;20.40;18.30;;;19.30;99.90;;;;;;5152140;27;20452;-67
2021/09/15 02:06:58;;;;;;;18.60;16.83;;;19.40;99.90;;;;;;5152166;27;20436;-67
2021/09/15 02:09:25;;;;;;;18.57;16.63;;;19.40;99.90;;;;;;5151877;27;20471;-68
2021/09/15 02:11:52;;;;;;;17.63;15.83;;;19.40;99.90;;;;;;5151949;27;20527;-67
2021/09/15 02:14:20;;;;;;;18.90;17.10;;;19.40;99.90;;;;;;5152389;27;20546;-67
2021/09/15 02:16:47;;;;;;;20.00;18.03;;;19.40;99.90;;;;;;5152151;27;20436;-67
2021/09/15 02:19:14;;;;;;;22.23;17.70;;;19.30;99.90;;;;;;5152093;27;20933;-67
2021/09/15 02:21:41;;;;;;;20.07;18.20;;;19.30;99.90;;;;;;5151383;27;20439;-66
2021/09/15 02:24:09;;;;;;;18.30;16.60;;;19.30;99.90;;;;;;5151863;27;20522;-66
2021/09/15 02:26:36;;;;;;;20.30;18.40;;;19.20;99.90;;;;;;5151993;27;20532;-67
2021/09/15 02:29:04;;;;;;;21.13;19.10;;;19.20;99.90;;;;;;5152090;27;20471;-67
2021/09/15 02:31:32;;;;;;;20.30;18.30;;;19.30;99.90;;;;;;5151453;27;20432;-67
2021/09/15 02:33:59;;;;;;;20.77;18.60;;;19.30;99.90;;;;;;5151463;27;21119;-67
2021/09/15 02:36:27;;;;;;;20.80;18.70;;;19.30;99.90;;;;;;5151563;27;20456;-67
2021/09/15 02:38:54;;;;;;;20.97;19.07;;;19.30;99.90;;;;;;5152129;27;20440;-67
2021/09/15 02:41:21;;;;;;;19.43;17.70;;;19.30;99.90;;;;;;5151080;27;20448;-67
2021/09/15 02:43:49;;;;;;;18.13;16.43;;;19.20;99.90;;;;;;5151881;27;20480;-67
2021/09/15 02:46:16;;;;;;;18.73;17.03;;;19.20;99.90;;;;;;5151645;27;20463;-67
2021/09/15 02:48:44;;;;;;;19.87;17.97;;;19.20;99.90;;;;;;5151562;27;20479;-67
2021/09/15 02:51:11;;;;;;;18.97;17.23;;;19.20;99.90;;;;;;5151520;27;20539;-67
2021/09/15 02:53:38;;;;;;;19.30;17.30;;;19.30;99.90;;;;;;5151419;27;20444;-67
2021/09/15 02:56:05;;;;;;;20.00;17.17;;;19.20;99.90;;;;;;5151507;27;20460;-67
2021/09/15 02:58:31;;;;;;;17.97;16.17;;;19.10;99.90;;;;;;5151680;27;20457;-67
2021/09/15 03:00:58;;;;;;;17.63;16.03;;;19.20;99.90;;;;;;5151593;27;20439;-66
2021/09/15 03:03:25;;;;;;;17.27;15.47;;;19.10;99.90;;;;;;5150927;27;20446;-66
2021/09/15 03:05:53;;;;;;;18.03;16.30;;;19.10;99.90;;;;;;5151743;27;21057;-67
2021/09/15 03:08:20;;;;;;;17.33;15.80;;;19.10;99.90;;;;;;5151308;27;20553;-66
2021/09/15 03:10:47;;;;;;;17.70;16.00;;;19.10;99.90;;;;;;5152551;27;20548;-66
2021/09/15 03:13:14;;;;;;;17.53;15.73;;;19.10;99.90;;;;;;5151925;27;21100;-66
2021/09/15 03:15:41;;;;;;;16.73;15.10;;;19.10;99.90;;;;;;5152074;27;20474;-66
2021/09/15 03:18:08;;;;;;;16.20;14.60;;;19.10;99.90;;;;;;5151612;27;20465;-67
2021/09/15 03:20:35;;;;;;;16.37;14.87;;;19.00;99.90;;;;;;5151258;27;20526;-67
2021/09/15 03:23:03;;;;;;;15.60;14.00;;;19.00;99.90;;;;;;5151055;27;20431;-67
2021/09/15 03:25:31;;;;;;;16.70;15.17;;;19.00;99.90;;;;;;5151096;27;20457;-67
2021/09/15 03:27:58;;;;;;;15.77;14.27;;;19.00;99.90;;;;;;5151185;27;20802;-66
2021/09/15 03:30:25;;;;;;;16.03;14.30;;;19.00;99.90;;;;;;5150985;27;20522;-66
2021/09/15 03:32:52;;;;;;;20.73;13.37;;;19.10;99.90;;;;;;5150867;27;20944;-67
2021/09/15 03:35:18;;;;;;;14.33;13.03;;;19.20;99.90;;;;;;5151185;27;20464;-66
2021/09/15 03:37:45;;;;;;;14.70;13.20;;;19.10;99.90;;;;;;5151407;27;20435;-67
2021/09/15 03:40:14;;;;;;;14.80;13.30;;;19.10;99.90;;;;;;5145437;27;20598;-66
2021/09/15 03:42:41;;;;;;;15.20;13.80;;;19.10;99.90;;;;;;5146935;27;20434;-67
2021/09/15 03:45:09;;;;;;;15.20;13.70;;;19.10;99.90;;;;;;5140075;27;20460;-68
2021/09/15 03:47:36;;;;;;;17.17;15.40;;;19.10;99.90;;;;;;5142996;27;20885;-66
2021/09/15 03:50:03;;;;;;;15.43;13.93;;;19.10;99.90;;;;;;5150237;27;20482;-72
2021/09/15 03:52:30;;;;;;;17.43;15.97;;;19.10;99.90;;;;;;5155469;27;20524;-69
2021/09/15 03:54:57;;;;;;;17.00;15.50;;;19.10;99.90;;;;;;5155551;27;20469;-68
2021/09/15 03:57:25;;;;;;;17.90;16.10;;;19.10;99.90;;;;;;5155127;27;20462;-68
2021/09/15 03:59:52;;;;;;;19.33;17.33;;;19.10;99.90;;;;;;5154872;27;20431;-67
2021/09/15 04:02:19;;;;;;;20.30;17.90;;;19.10;99.90;;;;;;5154471;27;20811;-67
2021/09/15 04:04:46;;;;;;;18.40;16.80;;;19.00;99.90;;;;;;5155058;27;20542;-67
2021/09/15 04:07:13;;;;;;;19.73;16.80;;;19.00;99.90;;;;;;5154551;27;20435;-67
2021/09/15 04:09:40;;;;;;;18.80;16.90;;;19.00;99.90;;;;;;5154879;27;20497;-68
2021/09/15 04:12:07;;;;;;;19.87;17.87;;;18.90;99.90;;;;;;5154338;27;20474;-68
2021/09/15 04:14:36;;;;;;;18.60;16.73;;;18.90;99.90;;;;;;5154526;27;20587;-68
2021/09/15 04:17:03;;;;;;;19.13;17.30;;;18.90;99.90;;;;;;5154670;27;20455;-68
2021/09/15 04:19:31;;;;;;;19.57;17.43;;;18.90;99.90;;;;;;5154739;27;20442;-68
2021/09/15 04:21:58;;;;;;;18.73;16.80;;;18.90;99.90;;;;;;5154030;27;20455;-68
2021/09/15 04:32:40;;;;;;;21.00;19.10;;;18.80;99.90;;;;;;5153742;27;20411;-67
2021/09/15 04:35:08;;;;;;;22.67;20.33;;;18.80;99.90;;;;;;5153851;27;20461;-67
2021/09/15 04:37:35;;;;;;;22.07;19.97;;;18.80;99.90;;;;;;5154667;27;20450;-68
2021/09/15 04:40:02;;;;;;;21.77;19.67;;;18.80;99.90;;;;;;5153005;27;20435;-68
2021/09/15 04:42:29;;;;;;;21.20;19.30;;;18.80;99.90;;;;;;5153820;27;20439;-68
2021/09/15 04:44:57;;;;;;;21.03;18.83;;;18.90;99.90;;;;;;5153575;27;20462;-68
2021/09/15 04:47:24;;;;;;;21.57;19.37;;;18.90;99.90;;;;;;5153733;27;20436;-67
2021/09/15 04:49:56;;;;;;;19.43;17.43;;;18.90;99.90;;;;;;5146808;27;20465;-68
2021/09/15 04:52:23;;;;;;;20.97;17.27;;;18.90;99.90;;;;;;5112192;28;20445;-67
2021/09/15 04:54:50;;;;;;;22.50;20.20;;;18.90;99.90;;;;;;5112185;28;20460;-67
2021/09/15 04:57:17;;;;;;;19.83;16.80;;;18.90;99.90;;;;;;5112732;28;20463;-68
2021/09/15 04:59:44;;;;;;;18.87;17.07;;;18.90;99.90;;;;;;5112441;28;20438;-68
2021/09/15 05:02:12;;;;;;;19.10;17.20;;;18.90;99.90;;;;;;5112176;28;20907;-68
2021/09/15 05:04:39;;;;;;;17.90;16.20;;;18.90;99.90;;;;;;5112330;27;21190;-68
2021/09/15 05:07:05;;;;;;;18.80;17.00;;;18.90;99.90;;;;;;5124481;27;20448;-68
2021/09/15 05:09:32;;;;;;;18.87;16.97;;;18.90;99.90;;;;;;5132094;27;20473;-68
2021/09/15 05:11:59;;;;;;;20.20;18.20;;;18.90;99.90;;;;;;5132078;27;20432;-67
2021/09/15 05:14:26;;;;;;;18.43;16.50;;;18.90;99.90;;;;;;5132139;27;20441;-68
2021/09/15 05:16:53;;;;;;;19.47;17.47;;;18.80;99.90;;;;;;5129548;27;20455;-67
2021/09/15 05:19:21;;;;;;;18.60;16.67;;;18.80;99.90;;;;;;5129405;27;20435;-67
2021/09/15 05:21:48;;;;;;;19.37;16.60;;;18.80;99.90;;;;;;5139847;27;20534;-67
2021/09/15 05:24:15;;;;;;;15.27;13.67;;;18.80;99.90;;;;;;5150760;27;20479;-67
2021/09/15 05:26:42;;;;;;;15.40;13.90;;;18.80;99.90;;;;;;5152122;27;20445;-67
2021/09/15 05:29:09;;;;;;;16.73;14.90;;;18.80;99.90;;;;;;5152099;27;20471;-68
2021/09/15 05:31:36;;;;;;;17.67;15.47;;;18.80;99.90;;;;;;5152317;27;20814;-66
2021/09/15 05:34:02;;;;;;;17.53;15.63;;;18.80;99.90;;;;;;5152971;27;20452;-66
2021/09/15 05:36:31;;;;;;;17.33;15.53;;;18.80;99.90;;;;;;5152838;27;20567;-66
2021/09/15 05:38:58;;;;;;;19.10;15.60;;;18.80;99.90;;;;;;5152718;27;20439;-70
2021/09/15 05:41:24;;;;;;;17.83;16.13;;;18.90;99.90;;;;;;5152439;27;20456;-67
2021/09/15 05:43:51;;;;;;;18.63;16.83;;;18.90;99.90;;;;;;5152419;27;20454;-67
2021/09/15 05:46:18;;;;;;;18.90;17.00;;;18.90;99.90;;;;;;5152601;27;20542;-67
2021/09/15 05:48:45;;;;;;;17.90;16.10;;;19.00;99.90;;;;;;5152544;27;20479;-67
2021/09/15 05:51:12;;;;;;;17.90;16.07;;;19.00;99.90;;;;;;5152560;27;20459;-67
2021/09/15 05:53:40;;;;;;;19.13;16.73;;;19.00;99.90;;;;;;5152464;27;20453;-67
2021/09/15 05:56:07;;;;;;;16.90;15.30;;;19.10;99.90;;;;;;5152458;27;20464;-67
2021/09/15 05:58:34;;;;;;;19.03;17.03;;;19.10;99.90;;;;;;5152215;27;20448;-67
2021/09/15 06:01:01;;;;;;;19.10;17.10;;;19.10;99.90;;;;;;5152164;27;21091;-67
2021/09/15 06:03:28;;;;;;;18.00;16.30;;;19.20;99.90;;;;;;5152003;27;20449;-67
2021/09/15 06:05:54;;;;;;;18.50;16.57;;;19.20;99.90;;;;;;5152036;27;20980;-68
2021/09/15 06:08:21;;;;;;;16.93;14.90;;;19.20;99.90;;;;;;5151493;27;20466;-67
2021/09/15 06:10:50;;;;;;;16.73;15.10;;;19.20;99.90;;;;;;5151981;27;20939;-67
2021/09/15 06:13:16;;;;;;;16.07;14.50;;;19.10;99.90;;;;;;5151758;27;20442;-68
2021/09/15 06:15:44;;;;;;;17.47;15.60;;;19.10;99.90;;;;;;5152155;27;20463;-68
2021/09/15 06:18:10;;;;;;;16.03;14.33;;;19.10;99.90;;;;;;5151923;27;20538;-68
2021/09/15 06:20:38;;;;;;;14.80;13.30;;;19.10;99.90;;;;;;5151963;27;20447;-68
2021/09/15 06:23:05;;;;;;;19.50;12.73;;;19.10;99.90;;;;;;5151502;27;20443;-68
2021/09/15 06:25:32;;;;;;;14.40;12.50;;;19.10;99.90;;;;;;5151687;27;20907;-67
2021/09/15 06:28:00;;;;;;;14.07;12.57;;;19.10;99.90;;;;;;5151972;27;20821;-69
2021/09/15 06:30:27;;;;;;;14.37;12.10;;;19.10;99.90;;;;;;5151865;27;20479;-68
2021/09/15 06:32:54;;;;;;;15.30;13.20;;;19.10;99.90;;;;;;5151485;27;20538;-68
2021/09/15 06:35:21;;;;;;;13.90;12.50;;;19.10;99.90;;;;;;5151581;27;20463;-68
2021/09/15 06:37:48;;;;;;;14.57;13.07;;;19.10;99.90;;;;;;5151755;27;20828;-68
2021/09/15 06:40:15;;;;;;;14.00;12.67;;;19.10;99.90;;;;;;5151485;27;20454;-68
2021/09/15 06:42:42;;;;;;;14.30;12.20;;;19.10;99.90;;;;;;5151766;27;20813;-68
2021/09/15 06:45:12;;;;;;;15.87;12.43;;;19.10;99.90;;;;;;5151808;27;20466;-68
2021/09/15 06:47:43;;;;;;;17.90;13.60;;;19.10;99.90;;;;;;5151951;27;20530;-68
2021/09/15 06:50:12;;;;;;;14.47;12.97;;;19.10;99.90;;;;;;5151810;27;20497;-68
2021/09/15 06:52:39;;;;;;;17.90;15.30;;;19.10;99.90;;;;;;5151400;27;21017;-68
2021/09/15 06:55:07;;;;;;;16.37;14.00;;;19.10;99.90;;;;;;5151931;27;20462;-68
2021/09/15 06:57:34;;;;;;;14.97;13.03;;;19.20;99.90;;;;;;5151724;27;20435;-68
2021/09/15 07:00:01;;;;;;;17.70;13.83;;;19.20;99.90;;;;;;5151531;27;20444;-68
2021/09/15 07:02:29;;;;;;;14.77;12.90;;;19.20;99.90;;;;;;5151290;27;20446;-68
2021/09/15 07:04:56;;;;;;;16.80;13.43;;;19.20;99.90;;;;;;5151349;27;20489;-68
2021/09/15 07:07:23;;;;;;;15.73;14.10;;;19.20;99.90;;;;;;5151310;27;20458;-68
2021/09/15 07:09:50;;;;;;;15.23;13.83;;;19.30;99.90;;;;;;5151257;27;20489;-68
2021/09/15 07:12:17;;;;;;;14.10;11.97;;;19.30;99.90;;;;;;5151181;27;20534;-68
2021/09/15 07:14:44;;;;;;;14.43;13.03;;;19.40;99.90;;;;;;5151315;27;20470;-68
2021/09/15 07:17:11;;;;;;;13.20;11.93;;;19.30;99.90;;;;;;5151362;27;20528;-68
2021/09/15 07:19:40;;;;;;;12.10;10.90;;;19.40;99.90;;;;;;5154660;27;20435;-68
2021/09/15 07:22:06;;;;;;;13.73;12.43;;;19.40;99.90;;;;;;5155072;27;20542;-68
2021/09/15 07:24:33;;;;;;;12.90;11.70;;;19.30;99.90;;;;;;5155375;27;20467;-68
2021/09/15 07:27:01;;;;;;;12.40;11.10;;;19.30;99.90;;;;;;5155322;27;20453;-67
2021/09/15 07:29:27;;;;;;;13.90;12.50;;;19.20;99.90;;;;;;5155190;27;20562;-68
2021/09/15 07:31:54;;;;;;;12.60;11.00;;;19.30;99.90;;;;;;5154833;27;20447;-67
2021/09/15 07:34:21;;;;;;;13.10;11.43;;;19.20;99.90;;;;;;5154892;27;20451;-68
2021/09/15 07:36:50;;;;;;;13.13;11.83;;;19.30;99.90;;;;;;5155302;27;20831;-68
2021/09/15 07:39:17;;;;;;;12.63;11.43;;;19.30;99.90;;;;;;5155089;27;20948;-68
2021/09/15 07:41:43;;;;;;;11.53;10.43;;;19.30;99.90;;;;;;5154640;27;20461;-68
2021/09/15 07:44:10;;;;;;;13.73;11.10;;;19.30;99.90;;;;;;5154790;27;21277;-68
2021/09/15 07:46:37;;;;;;;12.50;11.20;;;19.20;99.90;;;;;;5154855;27;20530;-67
2021/09/15 07:49:04;;;;;;;13.03;11.23;;;19.10;99.90;;;;;;5154580;27;20439;-68
2021/09/15 07:51:31;;;;;;;12.37;11.17;;;19.20;99.90;;;;;;5154495;27;21103;-68
2021/09/15 07:53:59;;;;;;;17.80;13.53;;;19.20;99.90;;;;;;5155027;27;20447;-67
2021/09/15 07:56:26;;;;;;;15.77;10.70;;;19.20;99.90;;;;;;5154641;27;20976;-68
2021/09/15 07:58:53;;;;;;;11.17;10.07;;;19.20;99.90;;;;;;5154649;27;20442;-68
2021/09/15 08:01:22;;;;;;;12.75;11.38;;;19.20;99.90;;;;;;5154073;27;20522;-68
2021/09/15 08:03:49;;;;;;;13.90;11.67;;;19.20;99.90;;;;;;5154314;27;20202;-68
2021/09/15 08:06:16;;;;;;;13.27;11.90;;;19.30;99.90;;;;;;5154549;27;20548;-68
2021/09/15 08:08:43;;;;;;;13.10;11.70;;;19.30;99.90;;;;;;5154424;27;20451;-67
2021/09/15 08:11:11;;;;;;;13.40;11.60;;;19.40;99.90;;;;;;5154248;27;20470;-68
2021/09/15 08:13:38;;;;;;;13.20;11.50;;;19.60;99.90;;;;;;5153999;27;20466;-68
2021/09/15 08:16:06;;;;;;;12.30;11.00;;;19.70;99.90;;;;;;5154047;27;20463;-68
2021/09/15 08:18:34;;;;;;;13.50;12.10;;;19.80;99.90;;;;;;5154263;27;20452;-68
2021/09/15 08:21:00;;;;;;;14.17;12.73;;;19.80;99.90;;;;;;5154247;27;20440;-67
2021/09/15 08:23:28;;;;;;;13.23;11.63;;;19.90;99.90;;;;;;5153913;27;20450;-68
2021/09/15 08:25:56;;;;;;;13.07;11.37;;;19.80;99.90;;;;;;5154090;27;20554;-68
2021/09/15 08:28:24;;;;;;;12.70;10.83;;;19.80;99.90;;;;;;5154284;27;20462;-68
2021/09/15 08:30:51;;;;;;;11.30;10.10;;;19.70;99.90;;;;;;5153923;27;20475;-68
2021/09/15 08:33:18;;;;;;;11.03;9.43;;;19.70;99.90;;;;;;5154341;27;20451;-67
2021/09/15 08:35:45;;;;;;;11.77;10.10;;;19.60;99.90;;;;;;5154452;27;20534;-68
2021/09/15 08:38:12;;;;;;;11.60;10.27;;;19.50;99.90;;;;;;5154221;27;20447;-68
2021/09/15 08:40:39;;;;;;;11.47;10.27;;;19.50;99.90;;;;;;5154061;27;20455;-68
2021/09/15 08:43:07;;;;;;;11.23;10.13;;;19.50;99.90;;;;;;5153607;27;20824;-68
2021/09/15 08:45:36;;;;;;;10.70;8.83;;;19.60;99.90;;;;;;5154294;27;20548;-67
2021/09/15 08:48:04;;;;;;;11.30;10.20;;;19.70;99.90;;;;;;5154135;27;20447;-68
2021/09/15 08:50:33;;;;;;;12.37;8.60;;;19.70;99.90;;;;;;5153955;27;20476;-67
2021/09/15 08:53:00;;;;;;;10.10;7.83;;;19.80;99.90;;;;;;5153661;27;20531;-67
2021/09/15 08:55:27;;;;;;;10.40;8.07;;;19.80;99.90;;;;;;5153761;27;20459;-67
2021/09/15 08:57:54;;;;;;;11.27;7.93;;;19.90;99.90;;;;;;5153796;27;20447;-67
2021/09/15 09:00:21;;;;;;;9.63;8.00;;;19.80;99.90;;;;;;5153891;27;20808;-67
2021/09/15 09:02:52;;;;;;;12.60;9.97;;;19.80;99.90;;;;;;5153353;27;20977;-68
2021/09/15 09:05:19;;;;;;;11.63;10.40;;;19.80;99.90;;;;;;5153626;27;20459;-67
2021/09/15 09:07:46;;;;;;;9.03;8.13;;;19.80;99.90;;;;;;5153531;27;20440;-67
2021/09/15 09:10:14;;;;;;;9.17;8.00;;;19.80;99.90;;;;;;5153361;27;20514;-67
2021/09/15 09:12:44;;;;;;;8.20;6.90;;;19.80;99.90;;;;;;5153150;27;20450;-67
2021/09/15 09:15:17;;;;;;;7.73;7.03;;;19.80;99.90;;;;;;5153473;27;20467;-69
2021/09/15 09:17:44;;;;;;;10.40;7.90;;;19.80;99.90;;;;;;5153443;27;20435;-69
2021/09/15 09:20:27;;;;;;;8.47;7.57;;;19.70;99.90;;;;;;5153577;27;20443;-69
2021/09/15 09:23:08;;;;;;;9.20;7.93;;;19.70;99.90;;;;;;5153101;27;20432;-69
2021/09/15 09:25:38;;;;;;;9.03;7.90;;;19.70;99.90;;;;;;5153449;27;20510;-68
2021/09/15 09:28:28;;;;;;;6.87;6.10;;;19.70;99.90;;;;;;5153304;27;20443;-69
2021/09/15 09:30:57;;;;;;;9.90;6.57;;;19.60;99.90;;;;;;5153346;27;20475;-69
2021/09/15 09:33:24;;;;;;;9.10;7.53;;;19.60;99.90;;;;;;5152890;27;20546;-68
2021/09/15 09:35:56;;;;;;;7.93;6.27;;;19.50;99.90;;;;;;5153244;27;20463;-69
2021/09/15 09:38:29;;;;;;;9.33;6.73;;;19.50;99.90;;;;;;5153157;27;20500;-68
2021/09/15 09:41:00;;;;;;;8.70;6.77;;;19.40;99.90;;;;;;5152826;27;20936;-68
2021/09/15 09:43:28;;;;;;;7.43;6.63;;;19.30;99.90;;;;;;5151740;27;21006;-68
2021/09/15 09:45:55;;;;;;;9.80;7.87;;;19.30;99.90;;;;;;5152710;27;20467;-69
2021/09/15 09:48:33;;;;;;;7.43;6.50;;;19.30;99.90;;;;;;5153112;27;21028;-68
2021/09/15 09:51:03;;;;;;;9.30;7.20;;;19.30;99.90;;;;;;5152910;27;20475;-69
2021/09/15 09:53:30;;;;;;;10.93;7.17;;;19.30;99.90;;;;;;5152679;27;21144;-68
2021/09/15 09:55:58;;;;;;;7.57;6.00;;;19.40;99.90;;;;;;5153067;27;20470;-68
2021/09/15 09:58:28;;;;;;;8.33;7.47;;;19.40;99.90;;;;;;5152693;27;20446;-68
2021/09/15 10:00:56;;;;;;;7.00;6.03;;;19.50;99.90;;;;;;5152374;27;20443;-68
2021/09/15 10:03:24;;;;;;;8.27;6.57;;;19.60;99.90;;;;;;5152055;27;20534;-68
2021/09/15 10:05:51;;;;;;;8.70;6.93;;;19.60;99.90;;;;;;5152172;27;20459;-68
2021/09/15 10:08:21;;;;;;;7.73;6.60;;;19.70;99.90;;;;;;5152370;27;20530;-68
2021/09/15 10:10:49;;;;;;;7.87;6.80;;;19.90;99.90;;;;;;5152072;27;20492;-68
2021/09/15 10:13:17;;;;;;;6.90;5.57;;;20.10;99.90;;;;;;5152319;27;20436;-69
2021/09/15 10:15:46;;;;;;;8.70;6.27;;;20.20;99.90;;;;;;5152587;27;20461;-68
2021/09/15 10:18:15;;;;;;;7.27;5.90;;;20.40;99.90;;;;;;5152363;27;20534;-68
2021/09/15 10:20:48;;;;;;;7.10;5.87;;;20.50;99.90;;;;;;5152257;27;21004;-68
2021/09/15 10:23:39;;;;;;;7.83;5.83;;;20.70;99.90;;;;;;5151750;27;20439;-69
2021/09/15 10:26:29;;;;;;;7.80;5.87;;;21.00;99.90;;;;;;5151797;27;21055;-68
2021/09/15 10:29:16;;;;;;;8.83;6.03;;;21.10;99.90;;;;;;5152123;27;20436;-68
2021/09/15 10:31:52;;;;;;;7.03;5.30;;;21.30;99.90;;;;;;5151435;27;20478;-68
2021/09/15 10:34:49;;;;;;;7.67;6.53;;;21.50;99.90;;;;;;5151889;27;20443;-68
2021/09/15 10:37:52;;;;;;;8.30;6.10;;;21.70;99.90;;;;;;5145492;27;20496;-68
2021/09/15 10:40:44;;;;;;;8.93;6.00;;;21.90;99.90;;;;;;5151922;27;20461;-68
2021/09/15 10:43:50;;;;;;;7.13;5.73;;;22.10;99.90;;;;;;5151535;27;20524;-68
2021/09/15 10:46:22;;;;;;;9.80;5.80;;;22.00;99.90;;;;;;5140951;27;20467;-68
2021/09/15 10:49:23;;;;;;;7.70;6.10;;;22.10;99.90;;;;;;5124386;28;20448;-69
2021/09/15 10:52:27;;;;;;;9.50;5.83;;;22.10;99.90;;;;;;5116158;28;20472;-68
2021/09/15 10:54:59;;;;;;;7.83;6.00;;;22.10;99.90;;;;;;5123859;28;21000;-69
2021/09/15 10:57:39;;;;;;;6.63;5.40;;;22.20;99.90;;;;;;5121055;27;20436;-69
2021/09/15 11:00:10;;;;;;;7.27;5.70;;;22.20;99.90;;;;;;5130904;27;20432;-69
2021/09/15 11:02:41;;;;;;;7.90;5.97;;;22.10;99.90;;;;;;5130234;27;20451;-68
2021/09/15 11:05:45;;;;;;;8.00;5.80;;;22.00;99.90;;;;;;5130478;27;20820;-68
2021/09/15 11:08:21;;;;;;;7.67;6.50;;;21.90;99.90;;;;;;5129727;27;20440;-68
2021/09/15 11:10:48;;;;;;;6.60;5.67;;;21.80;99.90;;;;;;5129928;27;20468;-68
2021/09/15 11:13:37;;;;;;;6.87;6.17;;;21.90;99.90;;;;;;5129355;27;20531;-68
2021/09/15 11:16:28;;;;;;;6.93;5.97;;;22.10;99.90;;;;;;5129358;27;20470;-68
2021/09/15 11:18:56;;;;;;;7.80;6.00;;;22.30;99.90;;;;;;5129631;27;20818;-68
2021/09/15 11:21:23;;;;;;;7.27;6.40;;;22.40;99.90;;;;;;5126039;27;20439;-68
2021/09/15 11:23:54;;;;;;;6.43;5.67;;;22.50;99.90;;;;;;5129573;27;20444;-68
2021/09/15 11:26:38;;;;;;;7.33;5.77;;;22.50;99.90;;;;;;5123497;28;20471;-69
2021/09/15 11:29:05;;;;;;;7.10;5.87;;;22.70;99.90;;;;;;5129330;27;20444;-68
2021/09/15 11:31:35;;;;;;;7.73;6.30;;;23.00;99.90;;;;;;5128968;27;20475;-68
2021/09/15 11:34:07;;;;;;;7.07;5.87;;;23.20;99.90;;;;;;5129219;27;20962;-68
2021/09/15 11:36:34;;;;;;;6.27;5.67;;;23.30;99.90;;;;;;5128571;27;20470;-68
2021/09/15 11:39:01;;;;;;;7.23;6.50;;;23.40;99.90;;;;;;5127357;27;20444;-68
2021/09/15 11:41:28;;;;;;;9.53;5.93;;;23.50;99.90;;;;;;5128310;27;20444;-68
2021/09/15 11:43:55;;;;;;;7.57;6.07;;;23.60;99.90;;;;;;5129245;27;20444;-69
2021/09/15 11:46:31;;;;;;;8.00;5.90;;;23.50;99.90;;;;;;5129166;27;20541;-68
2021/09/15 11:49:00;;;;;;;6.90;6.20;;;23.30;99.90;;;;;;5129550;27;20556;-68
2021/09/15 11:51:30;;;;;;;7.37;5.50;;;23.30;99.90;;;;;;5129098;27;20478;-68
2021/09/15 11:54:02;;;;;;;6.20;5.23;;;23.40;99.90;;;;;;5129170;27;20447;-68
2021/09/15 11:56:33;;;;;;;6.80;6.03;;;23.40;99.90;;;;;;5129276;27;21004;-68
2021/09/15 11:59:00;;;;;;;10.37;5.60;;;23.40;99.90;;;;;;5129369;27;20448;-68
2021/09/15 12:01:30;;;;;;;6.03;5.43;;;23.30;99.90;;;;;;5128922;27;20446;-68
2021/09/15 12:03:59;;;;;;;6.67;5.90;;;23.10;99.90;;;;;;5129785;27;20549;-68
2021/09/15 12:06:28;;;;;;;7.83;5.40;;;23.00;99.90;;;;;;5126553;27;20469;-68
2021/09/15 12:08:58;;;;;;;7.97;5.40;;;22.90;99.90;;;;;;5120825;27;20469;-68
2021/09/15 12:11:31;;;;;;;6.47;5.70;;;22.90;99.90;;;;;;5132696;27;20890;-68
2021/09/15 12:13:59;;;;;;;6.80;5.30;;;23.00;99.90;;;;;;5123748;27;20877;-68
2021/09/15 12:16:28;;;;;;;7.50;6.00;;;23.00;99.90;;;;;;5121453;27;20470;-68
2021/09/15 12:18:55;;;;;;;9.00;6.40;;;23.00;99.90;;;;;;5119446;27;20540;-68
2021/09/15 12:21:24;;;;;;;9.37;6.43;;;23.00;99.90;;;;;;5123474;27;20435;-68
2021/09/15 12:24:01;;;;;;;8.70;5.87;;;23.10;99.90;;;;;;5122097;27;20428;-68
2021/09/15 12:26:29;;;;;;;6.60;5.33;;;23.20;99.90;;;;;;5117728;27;20456;-68
2021/09/15 12:29:04;;;;;;;6.50;5.73;;;23.20;99.90;;;;;;5123451;27;20932;-69
2021/09/15 12:31:46;;;;;;;6.93;5.53;;;23.10;99.90;;;;;;5120716;27;20839;-68
2021/09/15 12:34:15;;;;;;;6.63;6.00;;;23.10;99.90;;;;;;5111153;27;20441;-69
2021/09/15 12:36:42;;;;;;;7.33;5.50;;;23.10;99.90;;;;;;5111241;28;20444;-68
2021/09/15 12:39:16;;;;;;;5.90;5.30;;;23.10;99.90;;;;;;5111518;28;20456;-68
2021/09/15 12:41:54;;;;;;;5.63;5.10;;;23.10;99.90;;;;;;5109849;28;20456;-68
2021/09/15 12:44:25;;;;;;;16.00;6.40;;;23.10;99.90;;;;;;5119381;27;20441;-68
2021/09/15 12:46:53;;;;;;;7.20;5.50;;;23.10;99.90;;;;;;5125624;27;20497;-68
2021/09/15 12:49:28;;;;;;;7.70;5.13;;;23.20;99.90;;;;;;5124058;27;20437;-68
2021/09/15 12:52:07;;;;;;;6.23;5.63;;;23.30;99.90;;;;;;5121925;27;20989;-68